Time;durP1;ratioP1;P1;durP2;ratioP2;P2;SDS_P1;SDS_P2;PMS_P1;PMS_P2;Temp;Humidity;BMP_temperature;BMP_pressure;BME280_temperature;BME280_humidity;BME280_pressure;Samples;Min_cycle;Max_cycle;Signal;HPM_P1;HPM_P2
2023/04/07 00:00:55;;;;;;;1.75;1.65;;;;;;;;;;2104925;28;20031;-66
2023/04/07 00:02:14;;;;;;;2.05;1.90;;;;;;;;;;2109508;28;20109;-67
2023/04/07 00:03:33;;;;;;;2.97;2.38;;;;;;;;;;2105299;28;20603;-66
2023/04/07 00:04:52;;;;;;;2.70;2.30;;;;;;;;;;2106519;28;20020;-67
2023/04/07 00:06:14;;;;;;;2.17;2.08;;;;;;;;;;2109491;28;20041;-67
2023/04/07 00:07:33;;;;;;;2.30;2.20;;;;;;;;;;2105646;28;20023;-67
2023/04/07 00:08:53;;;;;;;1.88;1.77;;;;;;;;;;2107158;28;20024;-68
2023/04/07 00:10:12;;;;;;;4.22;2.00;;;;;;;;;;2106257;28;20028;-67
2023/04/07 00:11:31;;;;;;;2.03;1.80;;;;;;;;;;2106167;28;20035;-67
2023/04/07 00:12:50;;;;;;;1.92;1.83;;;;;;;;;;2106002;28;20487;-68
2023/04/07 00:14:09;;;;;;;2.03;1.92;;;;;;;;;;2107694;28;20043;-71
2023/04/07 00:15:28;;;;;;;2.05;1.95;;;;;;;;;;2101545;28;20031;-67
2023/04/07 00:16:47;;;;;;;2.33;2.13;;;;;;;;;;2109218;28;20032;-67
2023/04/07 00:18:06;;;;;;;2.95;2.65;;;;;;;;;;2105875;28;20126;-66
2023/04/07 00:19:25;;;;;;;1.88;1.70;;;;;;;;;;2107180;28;20477;-67
2023/04/07 00:20:45;;;;;;;2.25;2.05;;;;;;;;;;2107285;28;20028;-66
2023/04/07 00:22:04;;;;;;;1.98;1.88;;;;;;;;;;2102307;28;20032;-67
2023/04/07 00:23:23;;;;;;;1.80;1.70;;;;;;;;;;2107062;28;20063;-67
2023/04/07 00:24:42;;;;;;;2.65;2.13;;;;;;;;;;2101646;28;20029;-67
2023/04/07 00:26:01;;;;;;;1.90;1.80;;;;;;;;;;2107066;28;20489;-66
2023/04/07 00:27:22;;;;;;;2.08;1.98;;;;;;;;;;2107245;28;20028;-67
2023/04/07 00:28:41;;;;;;;2.90;1.70;;;;;;;;;;2109900;28;20035;-66
2023/04/07 00:30:00;;;;;;;2.20;2.10;;;;;;;;;;2107145;28;20486;-66
2023/04/07 00:31:18;;;;;;;3.25;1.77;;;;;;;;;;2105801;28;20044;-67
2023/04/07 00:32:37;;;;;;;2.17;1.98;;;;;;;;;;2104994;28;20481;-67
2023/04/07 00:33:56;;;;;;;5.05;2.13;;;;;;;;;;2107976;28;20035;-66
2023/04/07 00:35:16;;;;;;;1.80;1.70;;;;;;;;;;2107270;28;20020;-67
2023/04/07 00:36:35;;;;;;;2.83;1.75;;;;;;;;;;2106618;28;20035;-67
2023/04/07 00:37:54;;;;;;;2.33;1.67;;;;;;;;;;2105164;28;20028;-67
2023/04/07 00:39:12;;;;;;;2.33;1.90;;;;;;;;;;2107778;28;20063;-67
2023/04/07 00:40:32;;;;;;;1.98;1.88;;;;;;;;;;2105529;28;20603;-67
2023/04/07 00:41:51;;;;;;;2.10;1.90;;;;;;;;;;2107803;28;20023;-67
2023/04/07 00:43:10;;;;;;;2.13;2.03;;;;;;;;;;2103718;28;20070;-66
2023/04/07 00:44:28;;;;;;;2.35;1.98;;;;;;;;;;2107636;28;20477;-66
2023/04/07 00:45:50;;;;;;;2.60;2.40;;;;;;;;;;2107130;28;20028;-67
2023/04/07 00:47:10;;;;;;;2.38;2.03;;;;;;;;;;2107622;28;20025;-66
2023/04/07 00:48:30;;;;;;;2.50;2.30;;;;;;;;;;2107817;28;20032;-68
2023/04/07 00:49:48;;;;;;;4.32;1.95;;;;;;;;;;2100442;28;20029;-67
2023/04/07 00:51:08;;;;;;;2.38;2.17;;;;;;;;;;2104881;28;20040;-67
2023/04/07 00:52:28;;;;;;;2.78;2.58;;;;;;;;;;2106011;28;20032;-66
2023/04/07 00:53:48;;;;;;;2.38;2.20;;;;;;;;;;2104847;28;20031;-66
2023/04/07 00:55:07;;;;;;;3.08;2.50;;;;;;;;;;2107695;28;20480;-68
2023/04/07 00:56:26;;;;;;;2.58;2.35;;;;;;;;;;2100949;28;20543;-67
2023/04/07 00:57:45;;;;;;;2.30;2.10;;;;;;;;;;2105650;28;20028;-67
2023/04/07 00:59:07;;;;;;;2.22;2.03;;;;;;;;;;2107974;28;20460;-68
2023/04/07 01:00:26;;;;;;;4.88;2.30;;;;;;;;;;2104459;28;20516;-67
2023/04/07 01:01:58;;;;;;;2.50;2.30;;;;;;;;;;2104978;28;20019;-69
2023/04/07 01:03:19;;;;;;;2.20;2.00;;;;;;;;;;2104202;28;20027;-68
2023/04/07 01:04:38;;;;;;;4.50;1.90;;;;;;;;;;2105611;28;20032;-68
2023/04/07 01:06:01;;;;;;;2.58;2.38;;;;;;;;;;2096319;28;20024;-67
2023/04/07 01:07:40;;;;;;;2.35;2.20;;;;;;;;;;2103234;28;20024;-66
2023/04/07 01:08:59;;;;;;;2.05;1.95;;;;;;;;;;2104669;28;20122;-68
2023/04/07 01:10:25;;;;;;;2.30;2.20;;;;;;;;;;2107565;28;20501;-68
2023/04/07 01:11:53;;;;;;;2.30;2.10;;;;;;;;;;2106218;28;20115;-67
2023/04/07 01:13:23;;;;;;;1.98;1.88;;;;;;;;;;2097323;28;20055;-66
2023/04/07 01:14:46;;;;;;;2.55;2.35;;;;;;;;;;2107457;28;20036;-68
2023/04/07 01:16:10;;;;;;;2.05;1.95;;;;;;;;;;2100929;28;20134;-68
2023/04/07 01:17:31;;;;;;;3.13;2.22;;;;;;;;;;2106878;28;20060;-68
2023/04/07 01:18:53;;;;;;;2.10;1.98;;;;;;;;;;2108166;28;20024;-66
2023/04/07 01:20:15;;;;;;;2.35;2.00;;;;;;;;;;2101776;28;20015;-68
2023/04/07 01:21:35;;;;;;;2.33;2.20;;;;;;;;;;2107020;28;20103;-68
2023/04/07 01:22:56;;;;;;;2.25;2.15;;;;;;;;;;2106207;28;20245;-68
2023/04/07 01:24:18;;;;;;;2.60;2.40;;;;;;;;;;2106256;28;20036;-68
2023/04/07 01:25:56;;;;;;;2.05;1.95;;;;;;;;;;2105034;28;20024;-66
2023/04/07 01:27:18;;;;;;;2.47;2.35;;;;;;;;;;2107416;28;20107;-67
2023/04/07 01:28:55;;;;;;;1.90;1.80;;;;;;;;;;2105566;28;20106;-67
2023/04/07 01:30:15;;;;;;;2.35;2.15;;;;;;;;;;2098846;28;20072;-68
2023/04/07 01:31:34;;;;;;;2.60;2.40;;;;;;;;;;2106884;28;20552;-68
2023/04/07 01:32:55;;;;;;;2.92;2.72;;;;;;;;;;2107006;28;20039;-67
2023/04/07 01:34:17;;;;;;;2.40;2.30;;;;;;;;;;2108776;28;20024;-66
2023/04/07 01:35:37;;;;;;;3.65;2.08;;;;;;;;;;2104981;28;20492;-68
2023/04/07 01:36:57;;;;;;;2.88;2.67;;;;;;;;;;2105803;28;20980;-67
2023/04/07 01:38:17;;;;;;;2.78;2.58;;;;;;;;;;2107861;28;20020;-66
2023/04/07 01:39:37;;;;;;;2.85;2.42;;;;;;;;;;2105129;28;20512;-67
2023/04/07 01:40:57;;;;;;;2.97;2.70;;;;;;;;;;2107411;28;20021;-68
2023/04/07 01:42:17;;;;;;;3.10;2.78;;;;;;;;;;2110357;28;20012;-67
2023/04/07 01:43:37;;;;;;;3.00;2.80;;;;;;;;;;2107031;28;20024;-67
2023/04/07 01:44:57;;;;;;;2.80;2.60;;;;;;;;;;2110701;28;20056;-67
2023/04/07 01:46:17;;;;;;;2.40;2.30;;;;;;;;;;2109289;28;20037;-67
2023/04/07 01:47:39;;;;;;;3.10;2.90;;;;;;;;;;2109106;28;20028;-67
2023/04/07 01:48:58;;;;;;;3.22;3.03;;;;;;;;;;2105955;28;20100;-68
2023/04/07 01:50:18;;;;;;;3.35;2.70;;;;;;;;;;2104293;28;20035;-67
2023/04/07 01:51:37;;;;;;;3.47;3.17;;;;;;;;;;2103751;28;20114;-67
2023/04/07 01:52:56;;;;;;;3.13;2.92;;;;;;;;;;2107135;28;20136;-67
2023/04/07 01:54:15;;;;;;;3.13;2.92;;;;;;;;;;2108457;28;20054;-67
2023/04/07 01:55:37;;;;;;;3.50;3.20;;;;;;;;;;2107542;28;20614;-67
2023/04/07 01:56:56;;;;;;;3.25;2.95;;;;;;;;;;2109335;28;20376;-68
2023/04/07 01:58:16;;;;;;;2.90;2.70;;;;;;;;;;2107930;28;20024;-68
2023/04/07 01:59:34;;;;;;;3.22;3.03;;;;;;;;;;2106123;28;20031;-68
2023/04/07 02:00:53;;;;;;;3.60;3.30;;;;;;;;;;2105833;28;20023;-67
2023/04/07 02:02:12;;;;;;;3.03;2.83;;;;;;;;;;2107682;28;20028;-67
2023/04/07 02:03:47;;;;;;;3.53;3.33;;;;;;;;;;2108038;28;20099;-68
2023/04/07 02:05:08;;;;;;;3.38;3.17;;;;;;;;;;2109752;28;20036;-68
2023/04/07 02:06:31;;;;;;;3.47;3.28;;;;;;;;;;2108311;28;20403;-70
2023/04/07 02:07:53;;;;;;;;;;;;;;;;;;2106188;28;20027;-67
2023/04/07 02:09:14;;;;;;;5.20;3.30;;;;;;;;;;2105169;28;20361;-67
2023/04/07 02:10:35;;;;;;;4.53;3.65;;;;;;;;;;2106866;27;20301;-67
2023/04/07 02:11:54;;;;;;;3.40;3.20;;;;;;;;;;2109206;28;20024;-69
2023/04/07 02:13:15;;;;;;;4.68;3.33;;;;;;;;;;2109815;28;20024;-66
2023/04/07 02:14:35;;;;;;;4.03;3.72;;;;;;;;;;2108012;28;20031;-67
2023/04/07 02:15:55;;;;;;;3.60;3.40;;;;;;;;;;2104892;28;20024;-67
2023/04/07 02:17:18;;;;;;;3.92;3.53;;;;;;;;;;2106805;28;20027;-67
2023/04/07 02:18:37;;;;;;;4.07;3.58;;;;;;;;;;2108644;28;20051;-67
2023/04/07 02:19:57;;;;;;;4.20;3.83;;;;;;;;;;2110618;28;20117;-67
2023/04/07 02:21:18;;;;;;;3.95;3.65;;;;;;;;;;2107004;28;20028;-67
2023/04/07 02:22:38;;;;;;;3.88;3.58;;;;;;;;;;2104636;28;20032;-67
2023/04/07 02:23:59;;;;;;;4.20;3.90;;;;;;;;;;2106557;28;20490;-67
2023/04/07 02:25:21;;;;;;;4.60;4.22;;;;;;;;;;2106289;28;20032;-67
2023/04/07 02:26:41;;;;;;;4.05;3.75;;;;;;;;;;2107798;28;20032;-68
2023/04/07 02:28:01;;;;;;;4.47;4.18;;;;;;;;;;2106651;28;21475;-68
2023/04/07 02:29:19;;;;;;;3.90;3.60;;;;;;;;;;2107049;28;20020;-68
2023/04/07 02:30:38;;;;;;;3.97;3.67;;;;;;;;;;2103119;28;20024;-67
2023/04/07 02:31:57;;;;;;;4.22;3.83;;;;;;;;;;2105173;28;20023;-68
2023/04/07 02:33:19;;;;;;;4.10;3.80;;;;;;;;;;2108928;28;20028;-68
2023/04/07 02:34:38;;;;;;;4.20;3.90;;;;;;;;;;2105153;28;20036;-68
2023/04/07 02:35:57;;;;;;;4.53;4.22;;;;;;;;;;2108303;28;20351;-67
2023/04/07 02:37:16;;;;;;;4.15;3.80;;;;;;;;;;2107696;28;20060;-68
2023/04/07 02:38:36;;;;;;;6.75;4.20;;;;;;;;;;2106801;28;20032;-68
2023/04/07 02:39:55;;;;;;;5.00;4.50;;;;;;;;;;2110097;28;20016;-68
2023/04/07 02:41:14;;;;;;;4.63;4.32;;;;;;;;;;2104091;28;20036;-68
2023/04/07 02:42:35;;;;;;;4.85;4.45;;;;;;;;;;2105295;28;20044;-68
2023/04/07 02:43:54;;;;;;;5.45;4.25;;;;;;;;;;2108770;28;20024;-68
2023/04/07 02:45:14;;;;;;;4.80;4.40;;;;;;;;;;2105081;28;20036;-68
2023/04/07 02:46:33;;;;;;;4.75;4.35;;;;;;;;;;2106276;28;20523;-69
2023/04/07 02:47:52;;;;;;;4.70;4.40;;;;;;;;;;2106306;28;20028;-67
2023/04/07 02:49:11;;;;;;;5.15;4.72;;;;;;;;;;2108343;28;20071;-67
2023/04/07 02:50:30;;;;;;;5.63;4.63;;;;;;;;;;2105560;28;20035;-68
2023/04/07 02:51:49;;;;;;;5.25;4.32;;;;;;;;;;2106842;28;20032;-66
2023/04/07 02:53:09;;;;;;;4.82;4.43;;;;;;;;;;2105002;28;20028;-67
2023/04/07 02:54:27;;;;;;;4.60;4.20;;;;;;;;;;2107659;28;20035;-68
2023/04/07 02:55:47;;;;;;;6.45;4.68;;;;;;;;;;2106458;28;20036;-68
2023/04/07 02:57:06;;;;;;;4.93;4.50;;;;;;;;;;2106223;28;20099;-68
2023/04/07 02:58:25;;;;;;;4.53;4.22;;;;;;;;;;2108261;28;20032;-67
2023/04/07 02:59:44;;;;;;;4.32;4.00;;;;;;;;;;2105776;28;20044;-68
2023/04/07 03:01:03;;;;;;;4.97;4.60;;;;;;;;;;2103949;28;20267;-67
2023/04/07 03:02:23;;;;;;;5.20;4.80;;;;;;;;;;2108470;28;20055;-67
2023/04/07 03:03:43;;;;;;;4.57;4.18;;;;;;;;;;2108007;28;20024;-67
2023/04/07 03:05:03;;;;;;;4.65;4.25;;;;;;;;;;2105478;28;20557;-67
2023/04/07 03:06:23;;;;;;;5.30;4.78;;;;;;;;;;2109067;28;20040;-66
2023/04/07 03:07:42;;;;;;;5.20;4.70;;;;;;;;;;2108927;28;20039;-69
2023/04/07 03:09:01;;;;;;;4.80;4.40;;;;;;;;;;2107438;28;20044;-68
2023/04/07 03:10:22;;;;;;;4.20;3.90;;;;;;;;;;2108204;28;20032;-68
2023/04/07 03:11:42;;;;;;;4.63;4.32;;;;;;;;;;2106869;28;20036;-68
2023/04/07 03:13:00;;;;;;;4.55;4.25;;;;;;;;;;2107932;28;20141;-68
2023/04/07 03:14:20;;;;;;;4.40;4.00;;;;;;;;;;2106326;28;20032;-68
2023/04/07 03:15:39;;;;;;;5.07;4.68;;;;;;;;;;2105105;28;20027;-68
2023/04/07 03:16:58;;;;;;;4.85;4.43;;;;;;;;;;2105879;28;20032;-68
2023/04/07 03:18:17;;;;;;;4.45;4.05;;;;;;;;;;2108850;28;20059;-67
2023/04/07 03:19:36;;;;;;;4.88;4.47;;;;;;;;;;2108768;28;20024;-68
2023/04/07 03:20:55;;;;;;;5.63;5.13;;;;;;;;;;2108129;28;20024;-68
2023/04/07 03:22:14;;;;;;;5.20;4.70;;;;;;;;;;2108111;28;20435;-68
2023/04/07 03:23:33;;;;;;;5.03;4.63;;;;;;;;;;2104717;28;20342;-68
2023/04/07 03:24:52;;;;;;;4.80;4.40;;;;;;;;;;2108789;28;20107;-68
2023/04/07 03:26:10;;;;;;;5.07;4.78;;;;;;;;;;2107977;28;20039;-68
2023/04/07 03:27:29;;;;;;;5.05;4.63;;;;;;;;;;2107500;28;20040;-68
2023/04/07 03:28:48;;;;;;;5.20;4.72;;;;;;;;;;2107359;28;20103;-71
2023/04/07 03:30:07;;;;;;;4.15;3.75;;;;;;;;;;2107546;28;20111;-68
2023/04/07 03:31:26;;;;;;;5.40;4.90;;;;;;;;;;2106348;28;20044;-69
2023/04/07 03:32:45;;;;;;;5.03;4.63;;;;;;;;;;2106344;28;20032;-69
2023/04/07 03:34:07;;;;;;;4.75;4.35;;;;;;;;;;2107404;28;20029;-68
2023/04/07 03:35:26;;;;;;;5.80;4.85;;;;;;;;;;2108365;28;20509;-68
2023/04/07 03:36:45;;;;;;;5.18;4.43;;;;;;;;;;2107845;28;20111;-68
2023/04/07 03:38:04;;;;;;;4.97;4.57;;;;;;;;;;2106167;28;20073;-69
2023/04/07 03:39:23;;;;;;;5.25;4.85;;;;;;;;;;2100209;28;20016;-69
2023/04/07 03:40:42;;;;;;;4.75;4.32;;;;;;;;;;2105727;28;20024;-68
2023/04/07 03:42:02;;;;;;;5.20;4.68;;;;;;;;;;2106924;28;20821;-67
2023/04/07 03:43:21;;;;;;;5.35;4.85;;;;;;;;;;2109808;28;20028;-68
2023/04/07 03:44:43;;;;;;;4.50;4.10;;;;;;;;;;2105049;28;20040;-67
2023/04/07 03:46:02;;;;;;;5.10;4.60;;;;;;;;;;2101727;28;20062;-67
2023/04/07 03:47:21;;;;;;;5.30;4.90;;;;;;;;;;2109390;28;20036;-68
2023/04/07 03:48:40;;;;;;;4.93;4.50;;;;;;;;;;2107262;28;20028;-69
2023/04/07 03:49:59;;;;;;;4.80;4.40;;;;;;;;;;2106161;28;20067;-67
2023/04/07 03:51:26;;;;;;;4.97;4.57;;;;;;;;;;2107219;28;20028;-67
2023/04/07 03:52:46;;;;;;;4.97;4.57;;;;;;;;;;2104719;28;20035;-67
2023/04/07 03:54:05;;;;;;;5.05;4.65;;;;;;;;;;2100535;28;20111;-67
2023/04/07 03:55:23;;;;;;;4.85;4.45;;;;;;;;;;2106251;28;20492;-69
2023/04/07 03:56:42;;;;;;;5.32;4.93;;;;;;;;;;2107466;28;20484;-67
2023/04/07 03:58:02;;;;;;;4.85;4.45;;;;;;;;;;2106135;28;20035;-68
2023/04/07 03:59:20;;;;;;;5.40;4.90;;;;;;;;;;2106472;28;20032;-68
2023/04/07 04:00:39;;;;;;;5.30;4.90;;;;;;;;;;2106388;28;20400;-68
2023/04/07 04:02:02;;;;;;;6.22;4.97;;;;;;;;;;2107061;28;20027;-68
2023/04/07 04:03:23;;;;;;;6.37;4.50;;;;;;;;;;2104769;28;20552;-67
2023/04/07 04:04:45;;;;;;;5.22;4.70;;;;;;;;;;2104146;28;20232;-67
2023/04/07 04:06:05;;;;;;;5.57;4.80;;;;;;;;;;2104609;28;20027;-67
2023/04/07 04:07:25;;;;;;;6.40;5.65;;;;;;;;;;2109382;28;20036;-68
2023/04/07 04:08:44;;;;;;;5.47;4.97;;;;;;;;;;2108918;28;20032;-68
2023/04/07 04:10:03;;;;;;;7.45;5.32;;;;;;;;;;2106750;28;20844;-68
2023/04/07 04:11:22;;;;;;;5.78;5.18;;;;;;;;;;2105987;28;20036;-68
2023/04/07 04:12:41;;;;;;;5.63;5.13;;;;;;;;;;2108204;28;20069;-68
2023/04/07 04:14:00;;;;;;;5.72;5.15;;;;;;;;;;2107664;28;20040;-67
2023/04/07 04:15:19;;;;;;;7.07;4.93;;;;;;;;;;2102757;28;20032;-68
2023/04/07 04:16:38;;;;;;;5.80;5.13;;;;;;;;;;2102438;28;20032;-67
2023/04/07 04:17:57;;;;;;;6.85;4.80;;;;;;;;;;2107227;28;20024;-68
2023/04/07 04:19:16;;;;;;;6.43;5.55;;;;;;;;;;2106254;28;20468;-68
2023/04/07 04:20:36;;;;;;;7.35;5.07;;;;;;;;;;2101160;28;20427;-68
2023/04/07 04:21:55;;;;;;;5.82;4.88;;;;;;;;;;2105445;28;20028;-68
2023/04/07 04:23:14;;;;;;;5.05;4.57;;;;;;;;;;2106601;28;20028;-68
2023/04/07 04:24:33;;;;;;;6.35;5.55;;;;;;;;;;2106234;28;20667;-67
2023/04/07 04:25:52;;;;;;;6.50;5.22;;;;;;;;;;2109290;28;20063;-68
2023/04/07 04:27:10;;;;;;;6.03;4.72;;;;;;;;;;2108569;28;20381;-68
2023/04/07 04:28:30;;;;;;;8.80;5.10;;;;;;;;;;2106152;28;20028;-68
2023/04/07 04:29:49;;;;;;;5.50;5.00;;;;;;;;;;2103085;28;20578;-67
2023/04/07 04:31:08;;;;;;;6.03;5.03;;;;;;;;;;2104108;28;20067;-68
2023/04/07 04:32:27;;;;;;;6.22;5.63;;;;;;;;;;2107774;28;20032;-68
2023/04/07 04:33:46;;;;;;;8.35;6.00;;;;;;;;;;2105790;28;20023;-67
2023/04/07 04:35:05;;;;;;;6.60;5.45;;;;;;;;;;2107932;28;20027;-67
2023/04/07 04:36:25;;;;;;;9.18;6.80;;;;;;;;;;2105379;28;20036;-68
2023/04/07 04:37:44;;;;;;;5.43;4.93;;;;;;;;;;2108202;28;20036;-67
2023/04/07 04:39:02;;;;;;;9.35;5.57;;;;;;;;;;2106974;28;20119;-67
2023/04/07 04:40:21;;;;;;;10.20;5.57;;;;;;;;;;2103517;28;20036;-67
2023/04/07 04:41:40;;;;;;;8.65;6.15;;;;;;;;;;2101811;28;20801;-68
2023/04/07 04:42:59;;;;;;;8.70;5.47;;;;;;;;;;2106671;28;20032;-67
2023/04/07 04:44:18;;;;;;;7.75;5.22;;;;;;;;;;2106628;28;20036;-68
2023/04/07 04:45:37;;;;;;;6.28;5.68;;;;;;;;;;2107067;28;20106;-69
2023/04/07 04:46:56;;;;;;;6.10;5.50;;;;;;;;;;2108537;28;20094;-68
2023/04/07 04:48:16;;;;;;;7.88;6.20;;;;;;;;;;2105287;28;20054;-69
2023/04/07 04:49:35;;;;;;;7.90;5.55;;;;;;;;;;2103538;28;20033;-68
2023/04/07 04:50:54;;;;;;;8.38;6.15;;;;;;;;;;2105909;28;20036;-68
2023/04/07 04:52:13;;;;;;;6.85;6.15;;;;;;;;;;2105888;28;21051;-67
2023/04/07 04:53:32;;;;;;;8.10;6.55;;;;;;;;;;2106228;28;20036;-68
2023/04/07 04:54:51;;;;;;;7.65;6.32;;;;;;;;;;2107842;28;20077;-68
2023/04/07 04:56:10;;;;;;;8.73;6.18;;;;;;;;;;2105182;28;20040;-68
2023/04/07 04:57:29;;;;;;;7.13;5.93;;;;;;;;;;2104921;28;20036;-67
2023/04/07 04:58:48;;;;;;;7.00;6.05;;;;;;;;;;2105430;28;20024;-68
2023/04/07 05:00:08;;;;;;;7.43;6.50;;;;;;;;;;2101476;28;20028;-67
2023/04/07 05:01:28;;;;;;;7.00;6.13;;;;;;;;;;2111211;27;20073;-69
2023/04/07 05:02:47;;;;;;;6.68;5.88;;;;;;;;;;2105762;28;20024;-67
2023/04/07 05:04:09;;;;;;;7.03;5.35;;;;;;;;;;2104693;28;20110;-68
2023/04/07 05:05:28;;;;;;;9.90;5.95;;;;;;;;;;2100612;28;20496;-67
2023/04/07 05:06:47;;;;;;;7.40;5.85;;;;;;;;;;2106551;28;20093;-68
2023/04/07 05:08:07;;;;;;;8.57;6.40;;;;;;;;;;2104242;28;20057;-67
2023/04/07 05:09:26;;;;;;;7.25;6.22;;;;;;;;;;2106992;28;20458;-69
2023/04/07 05:10:45;;;;;;;6.82;5.97;;;;;;;;;;2108542;28;20032;-68
2023/04/07 05:12:05;;;;;;;6.45;5.88;;;;;;;;;;2106878;28;20032;-68
2023/04/07 05:13:24;;;;;;;7.30;6.05;;;;;;;;;;2100101;28;20035;-68
2023/04/07 05:14:43;;;;;;;6.50;5.70;;;;;;;;;;2107283;28;20413;-67
2023/04/07 05:16:02;;;;;;;6.40;5.75;;;;;;;;;;2105294;28;20034;-67
2023/04/07 05:17:21;;;;;;;6.97;6.28;;;;;;;;;;2107156;28;20025;-68
2023/04/07 05:18:40;;;;;;;8.27;6.30;;;;;;;;;;2107095;28;20085;-67
2023/04/07 05:19:59;;;;;;;6.80;5.90;;;;;;;;;;2106787;28;20023;-67
2023/04/07 05:21:21;;;;;;;8.48;6.35;;;;;;;;;;2107970;28;20024;-67
2023/04/07 05:22:40;;;;;;;8.70;7.18;;;;;;;;;;2104506;28;20468;-67
2023/04/07 05:23:59;;;;;;;9.02;6.63;;;;;;;;;;2104218;28;20480;-67
2023/04/07 05:25:18;;;;;;;7.53;6.55;;;;;;;;;;2106831;28;20028;-67
2023/04/07 05:26:37;;;;;;;9.02;6.35;;;;;;;;;;2108060;28;20032;-67
2023/04/07 05:27:57;;;;;;;7.93;5.95;;;;;;;;;;2108081;28;20028;-67
2023/04/07 05:29:16;;;;;;;7.43;6.25;;;;;;;;;;2106713;28;20066;-68
2023/04/07 05:30:35;;;;;;;8.00;5.82;;;;;;;;;;2104877;28;20032;-67
2023/04/07 05:31:54;;;;;;;11.27;7.53;;;;;;;;;;2103635;28;20069;-67
2023/04/07 05:33:13;;;;;;;9.13;6.45;;;;;;;;;;2105766;28;20025;-67
2023/04/07 05:34:32;;;;;;;11.55;7.20;;;;;;;;;;2109384;28;20056;-67
2023/04/07 05:35:51;;;;;;;9.35;6.57;;;;;;;;;;2109019;28;20020;-67
2023/04/07 05:37:10;;;;;;;11.00;7.03;;;;;;;;;;2105152;28;20024;-67
2023/04/07 05:38:28;;;;;;;13.27;7.65;;;;;;;;;;2105298;28;20020;-67
2023/04/07 05:39:47;;;;;;;10.65;8.23;;;;;;;;;;2106779;28;20040;-68
2023/04/07 05:41:06;;;;;;;11.73;7.75;;;;;;;;;;2105701;28;20032;-68
2023/04/07 05:42:25;;;;;;;14.98;7.72;;;;;;;;;;2106005;28;20028;-67
2023/04/07 05:43:44;;;;;;;9.80;7.97;;;;;;;;;;2104228;28;20028;-67
2023/04/07 05:45:03;;;;;;;12.40;7.82;;;;;;;;;;2105596;28;20032;-68
2023/04/07 05:46:23;;;;;;;12.63;8.38;;;;;;;;;;2105807;28;20061;-69
2023/04/07 05:47:42;;;;;;;13.40;8.27;;;;;;;;;;2106954;28;20023;-66
2023/04/07 05:49:01;;;;;;;12.27;8.25;;;;;;;;;;2106399;28;20031;-67
2023/04/07 05:50:19;;;;;;;14.60;9.20;;;;;;;;;;2101801;28;20401;-67
2023/04/07 05:51:39;;;;;;;11.25;7.82;;;;;;;;;;2107481;28;20488;-67
2023/04/07 05:52:57;;;;;;;10.90;8.00;;;;;;;;;;2103970;28;20647;-67
2023/04/07 05:54:16;;;;;;;12.55;8.63;;;;;;;;;;2107175;28;20031;-67
2023/04/07 05:55:35;;;;;;;13.05;8.57;;;;;;;;;;2106070;28;20029;-67
2023/04/07 05:56:55;;;;;;;13.75;8.50;;;;;;;;;;2103914;28;20024;-67
2023/04/07 05:58:13;;;;;;;12.20;8.52;;;;;;;;;;2106291;28;20028;-67
2023/04/07 05:59:33;;;;;;;10.77;8.30;;;;;;;;;;2104479;28;20485;-67
2023/04/07 06:00:52;;;;;;;10.60;7.78;;;;;;;;;;2100685;28;20052;-67
2023/04/07 06:02:12;;;;;;;9.82;7.47;;;;;;;;;;2102453;28;20024;-67
2023/04/07 06:03:31;;;;;;;10.25;7.70;;;;;;;;;;2107339;28;20024;-70
2023/04/07 06:04:50;;;;;;;12.68;8.10;;;;;;;;;;2104159;28;20019;-67
2023/04/07 06:06:09;;;;;;;13.60;7.05;;;;;;;;;;2105409;28;20040;-67
2023/04/07 06:07:28;;;;;;;10.20;7.50;;;;;;;;;;2104704;28;20029;-68
2023/04/07 06:08:47;;;;;;;9.63;7.07;;;;;;;;;;2105351;28;20024;-67
2023/04/07 06:10:06;;;;;;;9.23;6.75;;;;;;;;;;2104428;28;20024;-67
2023/04/07 06:11:26;;;;;;;7.97;6.85;;;;;;;;;;2106277;28;20032;-68
2023/04/07 06:12:45;;;;;;;7.55;6.63;;;;;;;;;;2105633;28;20099;-69
2023/04/07 06:14:04;;;;;;;8.98;7.30;;;;;;;;;;2108286;28;20044;-67
2023/04/07 06:15:23;;;;;;;7.90;6.53;;;;;;;;;;2105816;28;20028;-67
2023/04/07 06:16:42;;;;;;;10.02;6.43;;;;;;;;;;2106050;28;20031;-68
2023/04/07 06:18:01;;;;;;;7.35;6.55;;;;;;;;;;2108905;28;20060;-67
2023/04/07 06:19:20;;;;;;;7.05;6.30;;;;;;;;;;2104618;28;20025;-68
2023/04/07 06:20:38;;;;;;;9.88;6.35;;;;;;;;;;2106578;28;20437;-68
2023/04/07 06:21:57;;;;;;;6.65;6.00;;;;;;;;;;2105450;28;20024;-68
2023/04/07 06:23:16;;;;;;;9.93;6.68;;;;;;;;;;2104675;28;20503;-68
2023/04/07 06:24:35;;;;;;;7.35;6.40;;;;;;;;;;2106259;28;20512;-68
2023/04/07 06:25:54;;;;;;;6.30;5.70;;;;;;;;;;2106216;28;20027;-68
2023/04/07 06:27:13;;;;;;;7.80;6.10;;;;;;;;;;2107758;28;20111;-67
2023/04/07 06:28:32;;;;;;;7.45;6.13;;;;;;;;;;2106442;28;20040;-67
2023/04/07 06:29:51;;;;;;;6.65;5.95;;;;;;;;;;2107765;28;20587;-67
2023/04/07 06:31:10;;;;;;;6.85;6.05;;;;;;;;;;2101850;28;20111;-67
2023/04/07 06:32:29;;;;;;;7.68;5.60;;;;;;;;;;2107959;28;20028;-67
2023/04/07 06:33:48;;;;;;;6.20;5.65;;;;;;;;;;2106875;28;20040;-69
2023/04/07 06:35:07;;;;;;;6.18;5.55;;;;;;;;;;2107869;28;20028;-68
2023/04/07 06:36:26;;;;;;;6.45;5.75;;;;;;;;;;2107894;28;20074;-68
2023/04/07 06:37:45;;;;;;;8.00;5.88;;;;;;;;;;2106595;28;20031;-67
2023/04/07 06:39:04;;;;;;;6.05;5.45;;;;;;;;;;2107338;28;20024;-67
2023/04/07 06:40:23;;;;;;;5.82;5.32;;;;;;;;;;2108411;28;20490;-69
2023/04/07 06:41:42;;;;;;;6.03;5.50;;;;;;;;;;2107234;28;20059;-67
2023/04/07 06:43:02;;;;;;;7.00;5.95;;;;;;;;;;2109320;28;20020;-69
2023/04/07 06:44:21;;;;;;;5.95;5.25;;;;;;;;;;2105580;28;20024;-68
2023/04/07 06:45:40;;;;;;;5.88;5.30;;;;;;;;;;2106240;28;20341;-70
2023/04/07 06:46:59;;;;;;;6.90;5.57;;;;;;;;;;2106315;28;20032;-67
2023/04/07 06:48:18;;;;;;;5.88;5.28;;;;;;;;;;2106752;28;20036;-70
2023/04/07 06:49:37;;;;;;;6.35;5.63;;;;;;;;;;2106740;28;20028;-69
2023/04/07 06:50:56;;;;;;;7.03;5.68;;;;;;;;;;2105408;28;20401;-69
2023/04/07 06:52:15;;;;;;;6.57;5.50;;;;;;;;;;2108250;28;20027;-68
2023/04/07 06:53:34;;;;;;;5.45;4.95;;;;;;;;;;2110192;28;20523;-70
2023/04/07 06:54:53;;;;;;;6.03;5.45;;;;;;;;;;2105977;28;20027;-68
2023/04/07 06:56:12;;;;;;;5.97;5.38;;;;;;;;;;2103723;28;20031;-68
2023/04/07 06:57:31;;;;;;;6.25;5.65;;;;;;;;;;2109879;28;20095;-68
2023/04/07 06:58:50;;;;;;;5.75;5.25;;;;;;;;;;2107704;28;20099;-68
2023/04/07 07:00:10;;;;;;;5.78;5.22;;;;;;;;;;2105970;28;20028;-68
2023/04/07 07:01:29;;;;;;;5.32;4.82;;;;;;;;;;2107722;28;20031;-69
2023/04/07 07:02:49;;;;;;;5.30;4.80;;;;;;;;;;2108155;28;20031;-68
2023/04/07 07:04:08;;;;;;;5.38;4.85;;;;;;;;;;2107400;28;20051;-68
2023/04/07 07:05:27;;;;;;;3.88;3.58;;;;;;;;;;2107341;28;20017;-68
2023/04/07 07:06:46;;;;;;;5.57;4.18;;;;;;;;;;2106495;28;20516;-67
2023/04/07 07:08:05;;;;;;;3.97;3.67;;;;;;;;;;2102197;28;20033;-68
2023/04/07 07:09:26;;;;;;;4.72;4.20;;;;;;;;;;2103041;28;20023;-67
2023/04/07 07:10:45;;;;;;;3.92;3.63;;;;;;;;;;2109496;28;20028;-68
2023/04/07 07:12:05;;;;;;;4.10;3.80;;;;;;;;;;2106136;28;20048;-68
2023/04/07 07:13:25;;;;;;;4.00;3.70;;;;;;;;;;2104765;28;20032;-68
2023/04/07 07:14:44;;;;;;;5.38;4.72;;;;;;;;;;2104365;28;20024;-68
2023/04/07 07:16:03;;;;;;;4.07;3.78;;;;;;;;;;2108265;28;20032;-68
2023/04/07 07:17:22;;;;;;;3.03;2.72;;;;;;;;;;2108753;28;20024;-68
2023/04/07 07:18:41;;;;;;;3.42;3.13;;;;;;;;;;2104421;28;20024;-68
2023/04/07 07:20:00;;;;;;;3.38;3.08;;;;;;;;;;2108374;28;20496;-68
2023/04/07 07:21:19;;;;;;;3.08;2.88;;;;;;;;;;2108576;28;20032;-68
2023/04/07 07:22:38;;;;;;;3.20;3.00;;;;;;;;;;2107437;28;20442;-68
2023/04/07 07:23:57;;;;;;;2.97;2.78;;;;;;;;;;2107415;28;20025;-68
2023/04/07 07:25:16;;;;;;;2.97;2.78;;;;;;;;;;2107999;28;20508;-68
2023/04/07 07:26:35;;;;;;;2.70;2.50;;;;;;;;;;2103513;28;20693;-69
2023/04/07 07:27:54;;;;;;;2.33;2.13;;;;;;;;;;2103631;28;20500;-68
2023/04/07 07:29:13;;;;;;;2.95;2.75;;;;;;;;;;2106215;28;20017;-68
2023/04/07 07:30:32;;;;;;;2.83;2.63;;;;;;;;;;2109039;28;20055;-67
2023/04/07 07:31:51;;;;;;;2.55;2.35;;;;;;;;;;2105427;28;20508;-68
2023/04/07 07:33:10;;;;;;;2.80;2.60;;;;;;;;;;2105032;28;20155;-67
2023/04/07 07:34:29;;;;;;;2.50;2.30;;;;;;;;;;2104400;28;20055;-68
2023/04/07 07:35:48;;;;;;;2.50;2.30;;;;;;;;;;2106142;28;20020;-67
2023/04/07 07:37:07;;;;;;;2.72;2.53;;;;;;;;;;2100093;28;20059;-68
2023/04/07 07:38:26;;;;;;;2.67;2.47;;;;;;;;;;2104532;28;20031;-68
2023/04/07 07:39:45;;;;;;;2.58;2.38;;;;;;;;;;2104655;28;20040;-68
2023/04/07 07:41:05;;;;;;;2.70;2.50;;;;;;;;;;2104815;28;20028;-67
2023/04/07 07:42:24;;;;;;;3.03;2.80;;;;;;;;;;2104472;28;20040;-67
2023/04/07 07:43:43;;;;;;;2.60;2.40;;;;;;;;;;2102720;28;20023;-68
2023/04/07 07:45:02;;;;;;;3.22;2.22;;;;;;;;;;2104644;28;20020;-69
2023/04/07 07:46:22;;;;;;;2.65;2.45;;;;;;;;;;2103731;28;20496;-68
2023/04/07 07:47:41;;;;;;;2.03;1.90;;;;;;;;;;2104426;27;20031;-69
2023/04/07 07:49:00;;;;;;;2.67;2.47;;;;;;;;;;2103361;28;20062;-68
2023/04/07 07:50:19;;;;;;;2.40;2.20;;;;;;;;;;2100859;28;20061;-68
2023/04/07 07:51:38;;;;;;;2.30;2.10;;;;;;;;;;2104406;28;20070;-68
2023/04/07 07:52:57;;;;;;;2.50;2.30;;;;;;;;;;2101641;28;20036;-68
2023/04/07 07:54:16;;;;;;;2.38;2.17;;;;;;;;;;2103734;28;20412;-67
2023/04/07 07:55:35;;;;;;;2.95;2.05;;;;;;;;;;2097569;28;20035;-68
2023/04/07 07:56:54;;;;;;;1.90;1.80;;;;;;;;;;2104148;28;20047;-67
2023/04/07 07:58:13;;;;;;;2.30;2.05;;;;;;;;;;2103217;28;20024;-67